Time;durP1;ratioP1;P1;durP2;ratioP2;P2;SDS_P1;SDS_P2;PMS_P1;PMS_P2;Temp;Humidity;BMP_temperature;BMP_pressure;BME280_temperature;BME280_humidity;BME280_pressure;Samples;Min_cycle;Max_cycle;Signal;HPM_P1;HPM_P2
2022/07/19 00:01:58;;;;;;;2.2;1.8;;;;;;;18.75;59.09082;943.7802;;;;
2022/07/19 00:04:23;;;;;;;2.6;2.1;;;;;;;18.64;59.16895;943.7977;;;;
2022/07/19 00:06:49;;;;;;;2.1;1.9;;;;;;;18.58;58.92871;943.7567;;;;
2022/07/19 00:09:14;;;;;;;4.2;1.8;;;;;;;18.54;59.76074;943.8313;;;;
2022/07/19 00:11:40;;;;;;;2.9;2.1;;;;;;;18.43;59.71094;943.8286;;;;
2022/07/19 00:14:05;;;;;;;3.4;2.1;;;;;;;18.54;59.49414;943.7473;;;;
2022/07/19 00:16:33;;;;;;;3.9;2.4;;;;;;;18.59;59.08105;943.7217;;;;
2022/07/19 00:18:58;;;;;;;2.1;1.9;;;;;;;18.34;59.85059;943.677;;;;
2022/07/19 00:21:24;;;;;;;2.1;1.9;;;;;;;18.47;59.71777;943.6934;;;;
2022/07/19 00:23:49;;;;;;;2.6;2.3;;;;;;;18.5;59.50098;943.6995;;;;
2022/07/19 00:26:16;;;;;;;2.4;2.2;;;;;;;18.55;59.44824;943.7416;;;;
2022/07/19 00:28:41;;;;;;;3.3;2.3;;;;;;;18.39;59.98438;943.7659;;;;
2022/07/19 00:31:07;;;;;;;3.2;2.2;;;;;;;18.45;60.25977;943.7413;;;;
2022/07/19 00:33:32;;;;;;;2.7;2;;;;;;;18.53;60.22559;943.637;;;;
2022/07/19 00:35:59;;;;;;;3.1;1.9;;;;;;;18.27;60.875;943.681;;;;
2022/07/19 00:38:24;;;;;;;3.8;2.3;;;;;;;18.3;60.85547;943.7395;;;;
2022/07/19 00:40:49;;;;;;;3;2.2;;;;;;;18.27;60.81738;943.7158;;;;
2022/07/19 00:43:14;;;;;;;2.1;1.9;;;;;;;18.21;60.59766;943.7274;;;;
2022/07/19 00:45:39;;;;;;;2.2;1.9;;;;;;;18.12;60.84375;943.7227;;;;
2022/07/19 00:48:07;;;;;;;4;2;;;;;;;18.14;60.63672;943.7095;;;;
2022/07/19 00:50:32;;;;;;;2.8;2;;;;;;;18.06;61.01953;943.6509;;;;
2022/07/19 00:53:00;;;;;;;2.3;1.9;;;;;;;18.08;60.70996;943.6803;;;;
2022/07/19 00:55:25;;;;;;;1.8;1.7;;;;;;;18.12;61.40137;943.7275;;;;
2022/07/19 00:57:50;;;;;;;3.2;1.9;;;;;;;18.17;60.21094;943.6811;;;;
2022/07/19 01:00:16;;;;;;;2.7;2;;;;;;;18.21;59.97168;943.6741;;;;
2022/07/19 01:02:40;;;;;;;3.3;2.2;;;;;;;17.95;60.74902;943.567;;;;
2022/07/19 01:05:12;;;;;;;2.5;1.9;;;;;;;17.91;61.0459;943.653;;;;
2022/07/19 01:07:39;;;;;;;2.1;1.9;;;;;;;17.84;61.18652;943.6697;;;;
2022/07/19 01:10:03;;;;;;;4;1.9;;;;;;;17.66;61.60449;943.6401;;;;
2022/07/19 01:12:29;;;;;;;2.3;1.8;;;;;;;17.64;61.72754;943.6234;;;;
2022/07/19 01:14:54;;;;;;;2.3;1.9;;;;;;;17.75;61.9873;943.6647;;;;
2022/07/19 01:17:21;;;;;;;2.1;1.9;;;;;;;17.7;61.73633;943.6877;;;;
2022/07/19 01:19:46;;;;;;;2.1;1.9;;;;;;;17.33;62.84473;943.6448;;;;
2022/07/19 01:22:12;;;;;;;2.1;1.8;;;;;;;17.29;63.14941;943.5817;;;;
2022/07/19 01:24:37;;;;;;;3.1;1.8;;;;;;;17.37;62.88281;943.6349;;;;
2022/07/19 01:27:05;;;;;;;2.3;2.1;;;;;;;17.2;63.35938;943.6046;;;;
2022/07/19 01:29:30;;;;;;;3.2;2.2;;;;;;;17.24;63.24902;943.6174;;;;
2022/07/19 01:31:56;;;;;;;2.6;2;;;;;;;17.15;63.60742;943.6339;;;;
2022/07/19 01:34:21;;;;;;;2.4;1.8;;;;;;;17.28;63.45117;943.6091;;;;
2022/07/19 01:36:48;;;;;;;2.6;2.1;;;;;;;17.43;63.00781;943.6106;;;;
2022/07/19 01:39:13;;;;;;;2.3;2.1;;;;;;;17.46;62.88574;943.5555;;;;
2022/07/19 01:41:41;;;;;;;3.2;1.8;;;;;;;17.51;62.4873;943.5994;;;;
2022/07/19 01:44:06;;;;;;;2.6;2;;;;;;;17.52;62.88281;943.5896;;;;
2022/07/19 01:46:33;;;;;;;2.5;2.2;;;;;;;17.64;62.71387;943.6033;;;;
2022/07/19 01:48:58;;;;;;;2.8;2.2;;;;;;;17.76;61.66309;943.5171;;;;
2022/07/19 01:51:24;;;;;;;4.7;2.7;;;;;;;17.68;61.98926;943.5042;;;;
2022/07/19 01:53:49;;;;;;;3.8;2.3;;;;;;;17.48;62.99414;943.5658;;;;
2022/07/19 01:56:16;;;;;;;2.4;2.1;;;;;;;17.53;63.01172;943.5308;;;;
2022/07/19 01:58:41;;;;;;;2.3;2.1;;;;;;;17.54;62.99023;943.5348;;;;
2022/07/19 02:01:07;;;;;;;2.2;2;;;;;;;17.42;63.15723;943.4842;;;;
2022/07/19 02:03:32;;;;;;;3.6;2;;;;;;;17.36;63.86914;943.5239;;;;
2022/07/19 02:05:57;;;;;;;3;2.2;;;;;;;17.27;63.45996;943.4724;;;;
2022/07/19 02:08:22;;;;;;;3.3;2.2;;;;;;;17.32;63.53809;943.5122;;;;
2022/07/19 02:10:49;;;;;;;2.9;2;;;;;;;17.36;63.41699;943.4595;;;;
2022/07/19 02:13:14;;;;;;;2.3;2.1;;;;;;;17.22;63.40723;943.4289;;;;
2022/07/19 02:15:47;;;;;;;2;1.8;;;;;;;16.95;63.6709;943.4347;;;;
2022/07/19 02:18:11;;;;;;;2.8;2.2;;;;;;;17.02;63.58691;943.3894;;;;
2022/07/19 02:20:37;;;;;;;2.4;2;;;;;;;16.97;63.66211;943.3298;;;;
2022/07/19 02:23:02;;;;;;;2.3;2;;;;;;;16.78;64.56055;943.3943;;;;
2022/07/19 02:25:29;;;;;;;3.5;2.2;;;;;;;16.74;64.74121;943.3656;;;;
2022/07/19 02:27:55;;;;;;;2.7;2.2;;;;;;;16.91;64.42871;943.4026;;;;
2022/07/19 02:30:20;;;;;;;2.4;2.1;;;;;;;16.93;64.32715;943.3358;;;;
2022/07/19 02:32:45;;;;;;;4;2.3;;;;;;;16.91;64.6377;943.3721;;;;
2022/07/19 02:35:13;;;;;;;2.1;1.9;;;;;;;16.8;65.06152;943.3822;;;;
2022/07/19 02:37:39;;;;;;;3.1;2.1;;;;;;;16.87;64.96777;943.3965;;;;
2022/07/19 02:40:04;;;;;;;3.2;2.2;;;;;;;16.89;64.86621;943.3095;;;;
2022/07/19 02:42:29;;;;;;;2.8;2.3;;;;;;;16.79;64.95703;943.3638;;;;
2022/07/19 02:44:56;;;;;;;4.4;2.3;;;;;;;16.74;65.72559;943.2877;;;;
2022/07/19 02:47:21;;;;;;;3.9;2.3;;;;;;;16.71;65.61621;943.3256;;;;
2022/07/19 02:49:47;;;;;;;2.9;2.4;;;;;;;16.82;65.34375;943.3325;;;;
2022/07/19 02:52:13;;;;;;;3.4;2.5;;;;;;;16.75;66.02637;943.3117;;;;
2022/07/19 02:54:38;;;;;;;3.6;2.7;;;;;;;16.84;65.36914;943.2986;;;;
2022/07/19 02:57:06;;;;;;;2.2;2;;;;;;;16.49;65.97656;943.2137;;;;
2022/07/19 02:59:31;;;;;;;3.2;2.2;;;;;;;16.47;66.03027;943.2637;;;;
2022/07/19 03:01:56;;;;;;;2.7;2;;;;;;;16.4;66.19434;943.2477;;;;
2022/07/19 03:04:25;;;;;;;3.2;2.4;;;;;;;16.36;66.9873;943.1675;;;;
2022/07/19 03:06:50;;;;;;;2.6;2.4;;;;;;;16.44;67.21875;943.214;;;;
2022/07/19 03:09:19;;;;;;;3.7;2.2;;;;;;;16.31;67.52344;943.2352;;;;
2022/07/19 03:11:44;;;;;;;2.7;2.1;;;;;;;16.25;67.72363;943.2644;;;;
2022/07/19 03:14:16;;;;;;;4.6;2.3;;;;;;;16.01;68.72461;943.3058;;;;
2022/07/19 03:16:49;;;;;;;4.1;2.5;;;;;;;16.19;68.38281;943.262;;;;
2022/07/19 03:19:20;;;;;;;2.6;2.3;;;;;;;16.41;67.46875;943.2347;;;;
2022/07/19 03:21:46;;;;;;;3;2.4;;;;;;;16.56;66.92578;943.2536;;;;
2022/07/19 03:24:16;;;;;;;2.8;2.3;;;;;;;16.54;66.83008;943.1596;;;;
2022/07/19 03:26:41;;;;;;;2.9;2.3;;;;;;;16.45;67.42871;943.2043;;;;
2022/07/19 03:29:06;;;;;;;3.4;2.3;;;;;;;16.4;67.30566;943.1569;;;;
2022/07/19 03:31:35;;;;;;;2.7;2.4;;;;;;;16.25;67.82617;943.1287;;;;
2022/07/19 03:34:03;;;;;;;3.4;2.7;;;;;;;16.06;68.47852;943.1484;;;;
2022/07/19 03:36:35;;;;;;;3;2.5;;;;;;;15.84;69.56641;943.1353;;;;
2022/07/19 03:39:04;;;;;;;3;2.2;;;;;;;15.95;69.29395;943.1477;;;;
2022/07/19 03:41:31;;;;;;;3.6;2.5;;;;;;;15.76;69.93457;943.1368;;;;
2022/07/19 03:44:05;;;;;;;3.8;2.6;;;;;;;15.67;70.47461;943.1354;;;;
2022/07/19 03:46:36;;;;;;;3;2.4;;;;;;;15.51;71.09473;943.0966;;;;
2022/07/19 03:49:03;;;;;;;3.5;2.7;;;;;;;15.73;70.3457;943.0718;;;;
2022/07/19 03:51:37;;;;;;;3.1;2.3;;;;;;;15.66;70.7373;943.0929;;;;
2022/07/19 03:54:02;;;;;;;5.8;3.1;;;;;;;15.72;70.18164;943.0293;;;;
2022/07/19 03:56:31;;;;;;;2.7;2;;;;;;;15.88;69.60645;943.005;;;;
2022/07/19 03:58:59;;;;;;;2.6;2.4;;;;;;;15.81;70.06836;942.9439;;;;
2022/07/19 04:02:49;;;;;;;3.2;2.4;;;;;;;15.85;69.90234;942.9963;;;;
2022/07/19 04:05:18;;;;;;;3.6;2.4;;;;;;;15.74;70.63477;942.9891;;;;
2022/07/19 04:07:47;;;;;;;3.2;2.5;;;;;;;15.66;71.02637;943.0295;;;;
2022/07/19 04:10:13;;;;;;;4.5;2.8;;;;;;;15.64;71.2793;943.0488;;;;
2022/07/19 04:12:43;;;;;;;2.5;2.3;;;;;;;15.6;71.46777;942.9949;;;;
2022/07/19 04:15:08;;;;;;;3.9;2.7;;;;;;;15.5;72.09863;942.957;;;;
2022/07/19 04:17:33;;;;;;;3.9;2.9;;;;;;;15.49;72.20117;942.9706;;;;
2022/07/19 04:20:02;;;;;;;8.1;3.3;;;;;;;15.56;71.50684;942.972;;;;
2022/07/19 04:22:27;;;;;;;2.8;2.5;;;;;;;15.52;71.5127;942.9504;;;;
2022/07/19 04:24:57;;;;;;;3.3;2.3;;;;;;;15.47;72.13867;942.9458;;;;
2022/07/19 04:27:24;;;;;;;2.8;2.3;;;;;;;15.48;72.03613;942.9137;;;;
2022/07/19 04:29:52;;;;;;;4.2;2.6;;;;;;;15.4;72.50879;942.9617;;;;
2022/07/19 04:32:17;;;;;;;4;2.7;;;;;;;15.43;72.92969;942.9025;;;;
2022/07/19 04:34:46;;;;;;;3.8;2.4;;;;;;;15.43;73.12598;942.9844;;;;
2022/07/19 04:37:11;;;;;;;3.1;2.8;;;;;;;15.41;73.15723;943.0563;;;;
2022/07/19 04:39:39;;;;;;;4.4;2.6;;;;;;;15.47;72.75098;942.9796;;;;
2022/07/19 04:42:04;;;;;;;3.2;2.5;;;;;;;15.52;72.69043;942.9425;;;;
2022/07/19 04:44:33;;;;;;;4;2.7;;;;;;;15.62;72.54688;942.9612;;;;
2022/07/19 04:46:59;;;;;;;5.6;3;;;;;;;15.71;72.08594;942.9378;;;;
2022/07/19 04:49:26;;;;;;;3.9;2.9;;;;;;;15.87;71.50098;942.9648;;;;
2022/07/19 04:51:51;;;;;;;3.5;2.3;;;;;;;15.71;71.72852;942.9587;;;;
2022/07/19 04:54:20;;;;;;;3.9;2.4;;;;;;;15.68;72.20898;942.9266;;;;
2022/07/19 04:56:45;;;;;;;4.6;2.8;;;;;;;15.51;72.6084;942.9103;;;;
2022/07/19 04:59:13;;;;;;;5;2.6;;;;;;;15.4;72.89063;942.9103;;;;
2022/07/19 05:01:38;;;;;;;6;3;;;;;;;15.56;72.61719;942.9183;;;;
2022/07/19 05:04:07;;;;;;;4.7;2.6;;;;;;;15.72;72.19336;942.9345;;;;
2022/07/19 05:06:35;;;;;;;4.9;2.9;;;;;;;15.82;71.9209;942.949;;;;
2022/07/19 05:09:00;;;;;;;2.8;2.5;;;;;;;15.86;71.2793;942.8975;;;;
2022/07/19 05:11:28;;;;;;;3.9;2.6;;;;;;;15.94;70.86523;942.8562;;;;
2022/07/19 05:13:53;;;;;;;3.2;2.6;;;;;;;16.19;70.83496;942.8635;;;;
2022/07/19 05:16:24;;;;;;;2.6;2.2;;;;;;;17.03;69.9043;942.8703;;;;
2022/07/19 05:18:52;;;;;;;4.5;2.8;;;;;;;18.53;62.60938;942.8047;;;;
2022/07/19 05:21:18;;;;;;;4.9;2.6;;;;;;;19.99;57.14648;942.7238;;;;
2022/07/19 05:23:44;;;;;;;4.5;2.2;;;;;;;21.27;54.34961;942.7452;;;;
2022/07/19 05:26:09;;;;;;;3.5;2.2;;;;;;;22.23;50.52832;942.7037;;;;
2022/07/19 05:28:36;;;;;;;2.3;1.7;;;;;;;23.03;47.63574;942.6852;;;;
2022/07/19 05:31:01;;;;;;;3.1;2.1;;;;;;;23.04;47.7666;942.6069;;;;
2022/07/19 05:33:30;;;;;;;3.2;2.2;;;;;;;23.34;47.05859;942.7289;;;;
2022/07/19 05:35:56;;;;;;;2;1.8;;;;;;;23.59;46.40234;942.635;;;;
2022/07/19 05:38:24;;;;;;;3.3;2;;;;;;;23.96;46.31152;942.6376;;;;
2022/07/19 05:40:54;;;;;;;3.6;1.9;;;;;;;23.52;45.87793;942.65;;;;
2022/07/19 05:43:19;;;;;;;2.9;2;;;;;;;23.49;46.81641;942.6689;;;;
2022/07/19 05:45:49;;;;;;;2.1;1.9;;;;;;;23.15;48.00098;942.6446;;;;
2022/07/19 05:48:18;;;;;;;2.2;2;;;;;;;24.36;45.38672;942.65;;;;
2022/07/19 05:50:49;;;;;;;3.7;2.1;;;;;;;25.77;42.24316;942.639;;;;
2022/07/19 05:53:19;;;;;;;3.3;2;;;;;;;26.17;41.4541;942.7056;;;;
2022/07/19 05:55:44;;;;;;;4.8;2.1;;;;;;;26.75;40.76074;942.6512;;;;
2022/07/19 05:58:10;;;;;;;2.8;2.1;;;;;;;26.98;40.72266;942.5914;;;;
2022/07/19 06:00:35;;;;;;;3.9;2.2;;;;;;;26.94;39.34473;942.6365;;;;
2022/07/19 06:03:02;;;;;;;2.1;1.8;;;;;;;26.43;40.26953;942.6286;;;;
2022/07/19 06:05:27;;;;;;;2.8;1.9;;;;;;;26.21;40.57031;942.6219;;;;
2022/07/19 06:07:54;;;;;;;2.5;1.8;;;;;;;27.69;38.27051;942.5531;;;;
2022/07/19 06:10:19;;;;;;;9;2.9;;;;;;;28.22;37.60156;942.5648;;;;
2022/07/19 06:12:48;;;;;;;3.4;2;;;;;;;28.55;37.02441;942.5316;;;;
2022/07/19 06:15:13;;;;;;;3.8;2;;;;;;;28.29;37.19238;942.4799;;;;
2022/07/19 06:17:44;;;;;;;3.7;2;;;;;;;28.2;36.54297;942.4611;;;;
2022/07/19 06:20:09;;;;;;;3.7;2.1;;;;;;;28.35;36.7207;942.4376;;;;
2022/07/19 06:22:39;;;;;;;2;1.8;;;;;;;28.71;36.23926;942.4341;;;;
2022/07/19 06:25:11;;;;;;;2.1;1.9;;;;;;;29.39;34.86523;942.3444;;;;
2022/07/19 06:27:40;;;;;;;3.7;1.8;;;;;;;29.81;35.23047;942.3926;;;;
2022/07/19 06:30:05;;;;;;;4.8;2.2;;;;;;;29.7;35.55664;942.3217;;;;
2022/07/19 06:32:35;;;;;;;4.3;2.5;;;;;;;29.55;35.45996;942.3125;;;;
2022/07/19 06:35:06;;;;;;;2.6;2;;;;;;;30.24;34.09375;942.2597;;;;
2022/07/19 06:37:35;;;;;;;2.8;2;;;;;;;30.68;33.7207;942.2717;;;;
2022/07/19 06:40:00;;;;;;;4.7;2;;;;;;;31.61;31.65918;942.2546;;;;
2022/07/19 06:42:31;;;;;;;2.4;1.5;;;;;;;30.7;33.16113;942.2823;;;;
2022/07/19 06:44:55;;;;;;;2.7;1.6;;;;;;;31.46;32.25977;942.2114;;;;
2022/07/19 06:47:20;;;;;;;2.1;1.8;;;;;;;31.77;31.0957;942.2477;;;;
2022/07/19 06:49:50;;;;;;;1.8;1.6;;;;;;;32.11;30.02734;942.2043;;;;
2022/07/19 06:52:15;;;;;;;2.5;1.7;;;;;;;31.58;30.75879;942.1378;;;;
2022/07/19 06:54:46;;;;;;;3.2;1.6;;;;;;;32.06;30.67188;942.0585;;;;
2022/07/19 06:57:18;;;;;;;2.7;2;;;;;;;32.92;29.8291;942.1206;;;;
2022/07/19 06:59:46;;;;;;;2.2;2;;;;;;;32.15;30.36621;942.097;;;;
2022/07/19 07:02:11;;;;;;;4.2;2.1;;;;;;;33.11;30.40625;942.0838;;;;
2022/07/19 07:04:38;;;;;;;7.3;2.3;;;;;;;33.35;29.16016;942.0823;;;;
2022/07/19 07:07:03;;;;;;;2;1.7;;;;;;;33.94;28.99316;942.0525;;;;
2022/07/19 07:09:31;;;;;;;3.7;2.1;;;;;;;34.96;27.21289;942.0246;;;;
2022/07/19 07:11:56;;;;;;;2.1;1.7;;;;;;;34.83;27.55469;942.0342;;;;
2022/07/19 07:14:25;;;;;;;2.3;1.7;;;;;;;34.75;28.7793;942.0014;;;;
2022/07/19 07:16:52;;;;;;;3.1;2.2;;;;;;;35.15;27.34473;942.0246;;;;
2022/07/19 07:19:21;;;;;;;2.2;1.7;;;;;;;34.25;27.78418;941.9999;;;;
2022/07/19 07:21:48;;;;;;;2.5;1.6;;;;;;;35.05;28.89551;941.9888;;;;
2022/07/19 07:24:13;;;;;;;2.4;1.6;;;;;;;34.41;27.40918;941.8826;;;;
2022/07/19 07:26:40;;;;;;;2.2;1.5;;;;;;;34.75;28.93652;941.8822;;;;
2022/07/19 07:29:05;;;;;;;2.7;1.8;;;;;;;35.09;27.61816;941.8354;;;;
2022/07/19 07:31:32;;;;;;;2.3;1.6;;;;;;;35.29;26.45898;941.8083;;;;
2022/07/19 07:33:57;;;;;;;2.2;1.7;;;;;;;35.06;26.53125;941.7468;;;;
2022/07/19 07:36:23;;;;;;;4.3;1.8;;;;;;;34.63;27.71191;941.77;;;;
2022/07/19 07:38:48;;;;;;;2.1;1.9;;;;;;;34.26;27.59277;941.7186;;;;
2022/07/19 07:41:15;;;;;;;1.9;1.7;;;;;;;34.07;28.60449;941.6817;;;;
2022/07/19 07:43:40;;;;;;;2.1;1.5;;;;;;;33.85;28.74707;941.6606;;;;
2022/07/19 07:46:33;;;;;;;2.7;2.1;;;;;;;34.97;26.91113;941.6722;;;;
2022/07/19 07:48:58;;;;;;;2.6;1.8;;;;;;;34.66;27.1709;941.6117;;;;
2022/07/19 07:51:24;;;;;;;1.7;1.6;;;;;;;35.54;27.68262;941.593;;;;
2022/07/19 07:53:49;;;;;;;2.2;1.6;;;;;;;34.74;28.58594;941.5288;;;;
2022/07/19 07:56:17;;;;;;;1.6;1.5;;;;;;;34.71;27.26953;941.5478;;;;
2022/07/19 07:58:42;;;;;;;1.7;1.6;;;;;;;35.23;27.94043;941.4936;;;;
2022/07/19 08:01:10;;;;;;;3.2;2.2;;;;;;;35.33;26.76367;941.5101;;;;
2022/07/19 08:03:35;;;;;;;2.2;1.6;;;;;;;36.1;26.67578;941.4494;;;;
2022/07/19 08:06:03;;;;;;;1.6;1.5;;;;;;;37.4;24.84766;941.4723;;;;
2022/07/19 08:08:35;;;;;;;2.6;1.8;;;;;;;38.99;23.93555;941.4483;;;;
2022/07/19 08:10:55;;;;;;;2.1;1.9;;;;;;;38.57;23.16016;941.435;;;;
2022/07/19 08:13:23;;;;;;;2.3;1.9;;;;;;;38.76;23.69238;941.4069;;;;
2022/07/19 08:15:57;;;;;;;1.9;1.6;;;;;;;40.17;23.27734;941.3959;;;;
2022/07/19 08:18:24;;;;;;;3.8;2;;;;;;;40.05;22.10059;941.3823;;;;
2022/07/19 08:20:54;;;;;;;2.1;1.9;;;;;;;38.91;21.99707;941.4174;;;;
2022/07/19 08:23:19;;;;;;;1.7;1.6;;;;;;;39.64;23.33594;941.3529;;;;
2022/07/19 08:25:46;;;;;;;3.5;2;;;;;;;40.24;25.48926;941.3201;;;;
2022/07/19 08:28:11;;;;;;;4;2;;;;;;;40.03;26.16113;941.3853;;;;
2022/07/19 08:30:38;;;;;;;2.5;1.7;;;;;;;37.46;26.83984;941.338;;;;
2022/07/19 08:33:06;;;;;;;2.5;2;;;;;;;37.97;28.69141;941.3605;;;;
2022/07/19 08:35:28;;;;;;;4.1;1.7;;;;;;;36.87;28.85254;941.3242;;;;
2022/07/19 08:37:56;;;;;;;2.7;1.9;;;;;;;38.4;26.94336;941.3542;;;;
2022/07/19 08:40:21;;;;;;;2;1.7;;;;;;;38.53;27.20605;941.3585;;;;
2022/07/19 08:42:49;;;;;;;2.3;1.9;;;;;;;37.89;26.79297;941.3692;;;;
2022/07/19 08:45:17;;;;;;;3.4;1.9;;;;;;;39.42;24.22656;941.2847;;;;
2022/07/19 08:47:42;;;;;;;4.6;2;;;;;;;39.2;27.48926;941.345;;;;
2022/07/19 08:50:18;;;;;;;2.9;1.8;;;;;;;38.5;27.60547;941.3564;;;;
2022/07/19 08:52:43;;;;;;;2.7;1.9;;;;;;;38.56;25.12891;941.3127;;;;
2022/07/19 08:55:11;;;;;;;2.5;1.7;;;;;;;38.11;25.34766;941.2941;;;;
2022/07/19 09:00:02;;;;;;;3.1;1.5;;;;;;;37.48;27.26563;941.3201;;;;
2022/07/19 09:02:27;;;;;;;4;1.8;;;;;;;37.46;28.08887;941.313;;;;
2022/07/19 09:04:54;;;;;;;2.5;1.6;;;;;;;36.31;26.53125;941.2697;;;;
2022/07/19 09:07:22;;;;;;;1.5;1.4;;;;;;;38.18;24.09961;941.3175;;;;
2022/07/19 09:09:44;;;;;;;2.2;1.7;;;;;;;37.79;25.59668;941.308;;;;
2022/07/19 09:12:10;;;;;;;2.8;1.6;;;;;;;38.34;24.46094;941.2885;;;;
2022/07/19 09:14:39;;;;;;;1.9;1.7;;;;;;;38.37;24.4873;941.2589;;;;
2022/07/19 09:17:06;;;;;;;1.7;1.6;;;;;;;38.61;25.01074;941.228;;;;
2022/07/19 09:19:29;;;;;;;1.9;1.7;;;;;;;37.75;24.85449;941.3063;;;;
2022/07/19 09:21:57;;;;;;;1.7;1.6;;;;;;;38.16;26.30957;941.2399;;;;
2022/07/19 09:24:22;;;;;;;2.4;1.8;;;;;;;37.65;26.3291;941.2506;;;;
2022/07/19 09:26:50;;;;;;;1.6;1.5;;;;;;;38.92;23.27539;941.1788;;;;
2022/07/19 09:29:15;;;;;;;3.4;1.7;;;;;;;39.5;23.07227;941.1791;;;;
2022/07/19 09:31:40;;;;;;;2.1;1.7;;;;;;;40.47;22.42578;941.1509;;;;
2022/07/19 09:34:08;;;;;;;2.2;1.7;;;;;;;41.13;21.39453;941.1212;;;;
2022/07/19 09:36:35;;;;;;;2.9;1.9;;;;;;;40.39;23.14258;941.1302;;;;
2022/07/19 09:39:03;;;;;;;2.1;1.9;;;;;;;38.46;25.41602;941.1234;;;;
2022/07/19 09:41:28;;;;;;;2.5;1.9;;;;;;;38.03;29.03516;941.1351;;;;
2022/07/19 09:43:53;;;;;;;2.1;1.9;;;;;;;38.97;26.8916;941.1092;;;;
2022/07/19 09:46:23;;;;;;;4.7;2.1;;;;;;;39.25;25.31348;941.0998;;;;
2022/07/19 09:48:48;;;;;;;2.4;2;;;;;;;38.29;26.85254;941.0981;;;;
2022/07/19 09:51:14;;;;;;;2.8;1.7;;;;;;;38.64;26.13086;941.0522;;;;
2022/07/19 09:53:41;;;;;;;1.7;1.6;;;;;;;38.93;24.80859;941.045;;;;
2022/07/19 09:56:06;;;;;;;2;1.6;;;;;;;39.12;25.01367;941.0265;;;;
2022/07/19 09:58:32;;;;;;;1.8;1.7;;;;;;;38.33;26.50195;941.0293;;;;
2022/07/19 10:00:57;;;;;;;5.5;1.9;;;;;;;37.75;26.80859;940.997;;;;
2022/07/19 10:03:25;;;;;;;2.7;1.6;;;;;;;37.48;28.07813;940.9964;;;;
2022/07/19 10:05:50;;;;;;;1.9;1.7;;;;;;;37.82;28.05078;940.9177;;;;
2022/07/19 10:08:16;;;;;;;2.2;1.7;;;;;;;37.22;29.33594;940.9469;;;;
2022/07/19 10:10:41;;;;;;;3.3;1.8;;;;;;;36.43;29.93848;940.9264;;;;
2022/07/19 10:13:07;;;;;;;2.2;1.9;;;;;;;35.86;30.31152;940.8655;;;;
2022/07/19 10:15:43;;;;;;;2.5;1.9;;;;;;;36.33;29.87207;940.9045;;;;
2022/07/19 10:18:07;;;;;;;2.4;1.9;;;;;;;36.57;28.16797;940.9218;;;;
2022/07/19 10:20:32;;;;;;;2.4;2;;;;;;;35.53;30.79688;940.8823;;;;
2022/07/19 10:22:59;;;;;;;1.9;1.8;;;;;;;35.35;30.56738;940.902;;;;
2022/07/19 10:25:24;;;;;;;2.1;1.8;;;;;;;35.68;29.29688;940.8661;;;;
2022/07/19 10:27:54;;;;;;;2.6;1.8;;;;;;;34.86;31.47559;940.8052;;;;
2022/07/19 10:30:17;;;;;;;2.4;1.7;;;;;;;34.67;30.93262;940.7547;;;;
2022/07/19 10:32:47;;;;;;;2;1.8;;;;;;;34.68;32.13867;940.7516;;;;
2022/07/19 10:35:17;;;;;;;2;1.7;;;;;;;34.93;32.05957;940.7991;;;;
2022/07/19 10:37:42;;;;;;;2.1;1.9;;;;;;;35.19;31.8252;940.7967;;;;
2022/07/19 10:40:07;;;;;;;2.2;1.9;;;;;;;34.57;33.56543;940.7683;;;;
2022/07/19 10:42:37;;;;;;;3.3;1.8;;;;;;;34.19;35.36816;940.6898;;;;
2022/07/19 10:45:02;;;;;;;3.2;1.8;;;;;;;33.84;36.56738;940.685;;;;
2022/07/19 10:47:28;;;;;;;2.2;1.7;;;;;;;33.92;34.26367;940.6624;;;;
2022/07/19 10:49:53;;;;;;;3.8;1.8;;;;;;;33.66;37.2627;940.6586;;;;
2022/07/19 10:52:18;;;;;;;2.1;1.8;;;;;;;33.5;34.32813;940.6682;;;;
2022/07/19 10:54:46;;;;;;;4.6;2.2;;;;;;;33.51;35.42285;940.6895;;;;
2022/07/19 10:57:16;;;;;;;3.8;1.6;;;;;;;33.15;36.48828;940.6605;;;;
2022/07/19 10:59:46;;;;;;;3.3;2;;;;;;;33.4;36.47266;940.6247;;;;
2022/07/19 11:02:14;;;;;;;3.6;2.2;;;;;;;33.1;36.49609;940.6097;;;;
2022/07/19 11:04:39;;;;;;;3.4;2;;;;;;;33.28;36.36621;940.584;;;;
2022/07/19 11:07:05;;;;;;;4.2;2.1;;;;;;;33.43;36.35449;940.5352;;;;
2022/07/19 11:09:30;;;;;;;3.8;2;;;;;;;32.96;39.42676;940.5128;;;;
2022/07/19 11:11:57;;;;;;;2.7;1.9;;;;;;;32.98;36.78711;940.5275;;;;
2022/07/19 11:14:22;;;;;;;2.7;2;;;;;;;32.84;36.6084;940.4952;;;;
2022/07/19 11:16:47;;;;;;;3.8;2.1;;;;;;;32.81;37.16992;940.3883;;;;
2022/07/19 11:19:15;;;;;;;2.4;2.2;;;;;;;32.88;35.44531;940.3969;;;;
2022/07/19 11:21:41;;;;;;;2.1;2;;;;;;;32.79;38.17676;940.3555;;;;
2022/07/19 11:24:06;;;;;;;3.1;2;;;;;;;32.67;38.11816;940.3964;;;;
2022/07/19 11:26:31;;;;;;;3.1;2.1;;;;;;;32.42;36.0459;940.3244;;;;
2022/07/19 11:28:56;;;;;;;3.6;1.8;;;;;;;32.48;37.6582;940.2958;;;;
2022/07/19 11:31:23;;;;;;;4.3;2.2;;;;;;;32.6;37.47559;940.2836;;;;
2022/07/19 11:33:48;;;;;;;2.1;1.9;;;;;;;32.67;37.13379;940.2803;;;;
2022/07/19 11:36:16;;;;;;;2.1;1.9;;;;;;;32.8;35.64355;940.2461;;;;
2022/07/19 11:38:43;;;;;;;4.7;2;;;;;;;32.68;36.04297;940.2341;;;;
2022/07/19 11:41:09;;;;;;;4.6;2.4;;;;;;;32.87;35.85352;940.1959;;;;
2022/07/19 11:43:35;;;;;;;3.1;1.9;;;;;;;33.01;36.03223;940.2341;;;;
2022/07/19 11:45:59;;;;;;;1.9;1.8;;;;;;;33;35.37109;940.1708;;;;
2022/07/19 11:48:24;;;;;;;2.3;1.8;;;;;;;32.72;36.8623;940.1763;;;;
2022/07/19 11:50:49;;;;;;;4.9;2.2;;;;;;;32.9;35.63965;940.117;;;;
2022/07/19 11:53:19;;;;;;;2.5;2;;;;;;;32.95;35.4043;940.1096;;;;
2022/07/19 11:55:44;;;;;;;2.1;1.9;;;;;;;33.03;35.49316;940.0698;;;;
2022/07/19 11:58:10;;;;;;;3;2.1;;;;;;;33.03;35.07324;940.0823;;;;
2022/07/19 12:00:43;;;;;;;6.1;2.2;;;;;;;32.72;37.28223;939.9863;;;;
2022/07/19 12:03:06;;;;;;;2.4;1.9;;;;;;;32.49;39.92676;940.0349;;;;
2022/07/19 12:05:28;;;;;;;2.9;2;;;;;;;32.41;37.35254;939.968;;;;
2022/07/19 12:07:56;;;;;;;2.3;2;;;;;;;32.42;36.59766;939.967;;;;
2022/07/19 12:10:20;;;;;;;2;1.9;;;;;;;32.6;36.5166;939.9913;;;;
2022/07/19 12:12:48;;;;;;;3.2;2;;;;;;;32.73;36.82715;939.8749;;;;
2022/07/19 12:15:13;;;;;;;3;1.9;;;;;;;32.4;38.35938;939.8988;;;;
2022/07/19 12:17:40;;;;;;;2.1;1.9;;;;;;;32.62;35.59375;939.8549;;;;
2022/07/19 12:20:11;;;;;;;5;2.1;;;;;;;32.54;36.24707;939.8979;;;;
2022/07/19 12:22:36;;;;;;;3.2;2.1;;;;;;;32.64;35.5957;939.7775;;;;
2022/07/19 12:25:02;;;;;;;2.9;1.7;;;;;;;32.83;35.89844;939.7762;;;;
2022/07/19 12:27:27;;;;;;;2.5;2.1;;;;;;;32.67;36.96582;939.7574;;;;
2022/07/19 12:29:52;;;;;;;4.5;2.2;;;;;;;32.79;35.72754;939.7879;;;;
2022/07/19 12:32:19;;;;;;;3.3;2.1;;;;;;;32.86;35.28906;939.7247;;;;
2022/07/19 12:34:44;;;;;;;3.8;2.4;;;;;;;33.05;35.44727;939.7906;;;;
2022/07/19 12:37:11;;;;;;;3.9;2.1;;;;;;;33.19;34.18359;939.7184;;;;
2022/07/19 12:39:36;;;;;;;3.8;2.2;;;;;;;33.18;35.04883;939.6956;;;;
2022/07/19 12:42:01;;;;;;;2.6;2.1;;;;;;;33.21;34.91895;939.7313;;;;
2022/07/19 12:44:27;;;;;;;3;2;;;;;;;33.17;34.12207;939.7441;;;;
2022/07/19 12:46:52;;;;;;;2.2;2;;;;;;;33.16;34.45898;939.678;;;;
2022/07/19 12:49:18;;;;;;;15.1;2.9;;;;;;;32.9;37.35742;939.7434;;;;
2022/07/19 12:51:44;;;;;;;3;2.3;;;;;;;32.99;36.9082;939.6227;;;;
2022/07/19 12:54:08;;;;;;;4.1;2.1;;;;;;;33.15;35.875;939.6175;;;;
2022/07/19 12:56:33;;;;;;;2.1;1.9;;;;;;;33.02;36.37012;939.6523;;;;
2022/07/19 13:01:28;;;;;;;4.3;2.3;;;;;;;33.03;35.79395;939.5366;;;;
2022/07/19 13:03:53;;;;;;;3.3;2.2;;;;;;;32.9;35.51953;939.6616;;;;
2022/07/19 13:06:22;;;;;;;2.3;2;;;;;;;32.93;35.7627;939.5334;;;;
2022/07/19 13:08:50;;;;;;;3.1;2.1;;;;;;;32.96;35.75195;939.6184;;;;
2022/07/19 13:11:15;;;;;;;4.7;2;;;;;;;32.88;33.99219;939.5955;;;;
2022/07/19 13:13:42;;;;;;;3;2.1;;;;;;;32.68;35.38281;939.5286;;;;
2022/07/19 13:16:10;;;;;;;3.5;2.3;;;;;;;32.91;35.54395;939.4671;;;;
2022/07/19 13:18:37;;;;;;;3.1;2.1;;;;;;;32.87;35.46973;939.5639;;;;
2022/07/19 13:21:02;;;;;;;3;2;;;;;;;32.89;35.6875;939.5267;;;;
2022/07/19 13:23:29;;;;;;;2.4;2.1;;;;;;;32.95;34.79102;939.5003;;;;
2022/07/19 13:25:54;;;;;;;3.2;1.9;;;;;;;32.94;34.79102;939.5238;;;;
2022/07/19 13:28:22;;;;;;;4.4;2.1;;;;;;;33.05;35.61621;939.5028;;;;
2022/07/19 13:30:47;;;;;;;3.4;2.1;;;;;;;33.08;35.0293;939.4687;;;;
2022/07/19 13:33:14;;;;;;;3;2;;;;;;;33.07;36.06152;939.4253;;;;
2022/07/19 13:35:39;;;;;;;4.5;2.1;;;;;;;32.96;36.10059;939.4484;;;;
2022/07/19 13:38:06;;;;;;;3.6;1.9;;;;;;;32.96;35.37988;939.4567;;;;
2022/07/19 13:40:30;;;;;;;2.2;2;;;;;;;32.81;35.46484;939.457;;;;
2022/07/19 13:42:58;;;;;;;4.3;2.2;;;;;;;32.85;37.00391;939.4542;;;;
2022/07/19 13:45:23;;;;;;;3.3;2.3;;;;;;;32.86;35.36035;939.3755;;;;
2022/07/19 13:47:52;;;;;;;3;2.3;;;;;;;32.88;35.44531;939.3127;;;;
2022/07/19 13:50:17;;;;;;;3.6;2;;;;;;;32.85;35.94727;939.3087;;;;
2022/07/19 13:52:45;;;;;;;3.5;2;;;;;;;32.75;37.05664;939.3775;;;;
2022/07/19 13:55:10;;;;;;;4.4;2.1;;;;;;;32.43;37.52246;939.3118;;;;
2022/07/19 13:57:41;;;;;;;2.6;2.1;;;;;;;32.44;38.33887;939.2844;;;;
2022/07/19 14:00:17;;;;;;;3.5;2.2;;;;;;;32.41;37.07715;939.2957;;;;
2022/07/19 14:02:44;;;;;;;3.5;2.1;;;;;;;32.46;37.82422;939.2551;;;;
2022/07/19 14:05:09;;;;;;;4.2;2.2;;;;;;;32.45;37.04395;939.2549;;;;
2022/07/19 14:07:36;;;;;;;3.5;2.1;;;;;;;32.5;36.68848;939.2211;;;;
2022/07/19 14:10:01;;;;;;;2.9;2.2;;;;;;;32.45;38.45996;939.2216;;;;
2022/07/19 14:12:28;;;;;;;3.1;2.5;;;;;;;32.31;36.74512;939.1467;;;;
2022/07/19 14:14:53;;;;;;;3;2;;;;;;;32.08;37.54102;939.1624;;;;
2022/07/19 14:17:19;;;;;;;3.4;2.2;;;;;;;32.19;36.31543;939.1414;;;;
2022/07/19 14:19:44;;;;;;;5;2.4;;;;;;;32.26;38.07129;939.1232;;;;
2022/07/19 14:22:09;;;;;;;3.1;1.9;;;;;;;32.39;38.14258;939.2015;;;;
2022/07/19 14:24:36;;;;;;;4.2;2.3;;;;;;;32.34;38.40234;939.1373;;;;
2022/07/19 14:27:01;;;;;;;5.2;2.1;;;;;;;32.27;37.77246;939.1448;;;;
2022/07/19 14:29:28;;;;;;;5.3;2.3;;;;;;;32.29;35.61523;939.1381;;;;
2022/07/19 14:31:53;;;;;;;3;2.3;;;;;;;32.37;36.91797;939.1604;;;;